createdAt,value
2019-02-21T00:02:15.052Z,18.77
2019-02-21T00:05:18.678Z,19.97
2019-02-21T00:08:21.383Z,19.20
2019-02-21T00:11:23.921Z,17.93
2019-02-21T00:14:26.590Z,18.73
2019-02-21T00:17:29.194Z,18.37
2019-02-21T00:20:31.983Z,17.67
2019-02-21T00:23:34.591Z,19.77
2019-02-21T00:26:37.203Z,18.80
2019-02-21T00:29:39.762Z,18.23
2019-02-21T00:32:42.367Z,18.30
2019-02-21T00:35:44.983Z,18.00
2019-02-21T00:38:47.542Z,17.53
2019-02-21T00:41:50.243Z,18.17
2019-02-21T00:44:52.853Z,17.77
2019-02-21T00:47:55.534Z,18.40
2019-02-21T00:50:58.250Z,18.43
2019-02-21T00:54:00.982Z,18.23
2019-02-21T00:57:03.532Z,16.90
2019-02-21T01:00:07.741Z,17.83
2019-02-21T01:03:10.330Z,18.17
2019-02-21T01:06:12.989Z,19.10
2019-02-21T01:09:15.592Z,18.70
2019-02-21T01:12:18.241Z,20.00
2019-02-21T01:15:20.941Z,17.83
2019-02-21T01:18:23.586Z,18.90
2019-02-21T01:21:26.134Z,19.67
2019-02-21T01:24:28.944Z,18.83
2019-02-21T01:27:31.672Z,18.27
2019-02-21T01:30:34.547Z,17.90
2019-02-21T01:33:37.180Z,17.87
2019-02-21T01:36:39.856Z,19.07
2019-02-21T01:39:42.554Z,17.40
2019-02-21T01:42:45.137Z,19.30
2019-02-21T01:45:47.839Z,18.70
2019-02-21T01:48:51.542Z,18.20
2019-02-21T01:51:54.198Z,17.80
2019-02-21T01:54:56.741Z,16.43
2019-02-21T01:57:59.483Z,17.40
2019-02-21T02:01:08.604Z,17.10
2019-02-21T02:04:06.475Z,17.17
2019-02-21T02:07:09.106Z,16.37
2019-02-21T02:10:11.741Z,18.40
2019-02-21T02:13:24.127Z,18.30
2019-02-21T02:16:19.786Z,17.40
2019-02-21T02:19:22.363Z,17.37
2019-02-21T02:22:24.963Z,16.70
2019-02-21T02:25:27.630Z,16.43
2019-02-21T02:28:30.221Z,17.13
2019-02-21T02:31:32.802Z,16.93
2019-02-21T02:34:35.503Z,17.00
2019-02-21T02:37:38.151Z,17.70
2019-02-21T02:40:40.756Z,17.37
2019-02-21T02:43:43.324Z,16.60
2019-02-21T02:46:45.968Z,16.07
2019-02-21T02:49:48.515Z,17.70
2019-02-21T02:52:51.149Z,18.17
2019-02-21T02:55:53.779Z,17.70
2019-02-21T02:58:56.468Z,17.97
2019-02-21T03:01:59.075Z,17.40
2019-02-21T03:05:01.721Z,18.40
2019-02-21T03:08:04.446Z,16.67
2019-02-21T03:11:07.174Z,17.10
2019-02-21T03:14:09.857Z,18.67
2019-02-21T03:17:12.891Z,18.87
2019-02-21T03:20:15.535Z,17.90
2019-02-21T03:23:18.146Z,18.37
2019-02-21T03:26:20.901Z,19.30
2019-02-21T03:29:23.509Z,18.50
2019-02-21T03:32:26.197Z,17.87
2019-02-21T03:35:28.896Z,19.73
2019-02-21T03:38:35.056Z,18.50
2019-02-21T03:41:38.916Z,20.37
2019-02-21T03:44:41.547Z,19.47
2019-02-21T03:47:44.251Z,18.90
2019-02-21T03:50:46.994Z,19.20
2019-02-21T03:53:49.661Z,20.23
2019-02-21T03:56:52.400Z,20.27
2019-02-21T03:59:55.082Z,21.13
2019-02-21T04:02:57.709Z,20.50
2019-02-21T04:06:00.313Z,21.67
2019-02-21T04:09:04.875Z,20.80
2019-02-21T04:12:08.575Z,20.20
2019-02-21T04:15:12.405Z,21.17
2019-02-21T04:18:15.139Z,20.97
2019-02-21T04:21:18.617Z,21.17
2019-02-21T04:24:21.195Z,20.17
2019-02-21T04:27:23.767Z,20.67
2019-02-21T04:30:26.422Z,20.43
2019-02-21T04:33:29.045Z,21.10
2019-02-21T04:36:32.518Z,22.37
2019-02-21T04:39:35.066Z,21.37
2019-02-21T04:42:37.730Z,22.33
2019-02-21T04:45:40.601Z,21.20
2019-02-21T04:48:43.237Z,20.53
2019-02-21T04:51:45.956Z,21.43
2019-02-21T04:54:48.592Z,21.27
2019-02-21T04:57:51.244Z,21.53
2019-02-21T05:00:53.752Z,21.10
2019-02-21T05:03:56.362Z,20.80
2019-02-21T05:06:59.159Z,21.00
2019-02-21T05:10:03.265Z,20.23
2019-02-21T05:13:05.937Z,20.70
2019-02-21T05:16:08.466Z,22.87
2019-02-21T05:19:11.042Z,22.10
2019-02-21T05:22:13.783Z,20.90
2019-02-21T05:25:16.491Z,21.40
2019-02-21T05:28:41.161Z,21.17
2019-02-21T05:31:53.111Z,20.43
2019-02-21T05:35:14.199Z,22.80
2019-02-21T05:38:45.507Z,21.93
2019-02-21T05:42:06.952Z,22.43
2019-02-21T05:45:14.577Z,21.50
2019-02-21T05:48:28.900Z,21.90
2019-02-21T05:51:45.728Z,21.87
2019-02-21T05:55:07.867Z,23.50
2019-02-21T05:58:21.161Z,22.20
2019-02-21T06:01:55.375Z,23.47
2019-02-21T06:05:20.510Z,23.37
2019-02-21T06:08:49.039Z,22.33
2019-02-21T06:12:17.043Z,23.10
2019-02-21T06:15:47.455Z,22.83
2019-02-21T06:19:08.336Z,23.20
2019-02-21T06:22:22.142Z,22.60
2019-02-21T06:25:50.985Z,22.80
2019-02-21T06:29:00.249Z,24.57
2019-02-21T06:32:13.582Z,24.40
2019-02-21T06:35:07.565Z,23.60
2019-02-21T06:38:10.211Z,24.20
2019-02-21T06:41:12.870Z,24.10
2019-02-21T06:44:15.552Z,25.27
2019-02-21T06:47:18.250Z,23.80
2019-02-21T06:50:32.930Z,25.33
2019-02-21T06:53:39.577Z,24.10
2019-02-21T06:56:42.119Z,24.47
2019-02-21T06:59:48.377Z,24.97
2019-02-21T07:02:50.926Z,25.30
2019-02-21T07:05:54.447Z,25.50
2019-02-21T07:08:57.106Z,25.63
2019-02-21T07:11:59.760Z,25.80
2019-02-21T07:15:02.337Z,26.63
2019-02-21T07:18:05.085Z,24.43
2019-02-21T07:21:07.619Z,25.80
2019-02-21T07:24:10.272Z,25.33
2019-02-21T07:27:12.860Z,26.30
2019-02-21T07:30:20.033Z,25.80
2019-02-21T07:33:28.501Z,25.90
2019-02-21T07:36:24.678Z,25.43
2019-02-21T07:39:35.560Z,26.93
2019-02-21T07:42:31.852Z,26.17
2019-02-21T07:45:36.683Z,25.80
2019-02-21T07:48:39.415Z,27.03
2019-02-21T07:51:43.118Z,26.00
2019-02-21T07:54:49.500Z,26.40
2019-02-21T07:57:53.588Z,26.20
2019-02-21T08:00:57.156Z,25.97
2019-02-21T08:03:59.835Z,27.27
2019-02-21T08:07:02.666Z,27.43
2019-02-21T08:10:05.855Z,27.83
2019-02-21T08:13:08.586Z,26.23
2019-02-21T08:16:12.587Z,25.50
2019-02-21T08:19:15.387Z,27.13
2019-02-21T08:22:18.292Z,26.53
2019-02-21T08:25:20.915Z,25.77
2019-02-21T08:28:23.670Z,25.73
2019-02-21T08:31:26.440Z,25.10
2019-02-21T08:34:36.484Z,25.87
2019-02-21T08:37:39.003Z,24.50
2019-02-21T08:40:41.696Z,25.00
2019-02-21T08:43:44.409Z,25.57
2019-02-21T08:46:47.068Z,24.73
2019-02-21T08:49:50.899Z,25.80
2019-02-21T08:52:53.449Z,25.57
2019-02-21T08:55:58.353Z,26.27
2019-02-21T08:59:01.074Z,26.27
2019-02-21T09:02:05.092Z,24.10
2019-02-21T09:05:09.463Z,24.00
2019-02-21T09:08:12.335Z,24.47
2019-02-21T09:11:15.049Z,25.00
2019-02-21T09:14:17.714Z,23.07
2019-02-21T09:17:20.244Z,22.50
2019-02-21T09:20:23.020Z,23.87
2019-02-21T09:23:25.700Z,24.40
2019-02-21T09:26:28.274Z,24.30
2019-02-21T09:29:30.793Z,23.60
2019-02-21T09:32:33.446Z,23.50
2019-02-21T09:35:37.325Z,23.00
2019-02-21T09:38:40.043Z,23.37
2019-02-21T09:41:42.827Z,22.53
2019-02-21T09:44:49.673Z,22.57
2019-02-21T09:47:51.769Z,21.37
2019-02-21T09:50:56.226Z,22.90
2019-02-21T09:53:58.946Z,22.30
2019-02-21T09:57:12.414Z,22.00
2019-02-21T10:00:10.015Z,22.30
2019-02-21T10:03:12.555Z,21.90
2019-02-21T10:06:15.285Z,23.43
2019-02-21T10:09:17.826Z,21.50
2019-02-21T10:12:20.506Z,21.07
2019-02-21T10:15:23.164Z,21.03
2019-02-21T10:18:25.710Z,20.30
2019-02-21T10:21:28.340Z,21.70
2019-02-21T10:24:30.966Z,19.80
2019-02-21T10:27:33.592Z,21.20
2019-02-21T10:30:36.450Z,21.67
2019-02-21T10:33:46.560Z,23.20
2019-02-21T10:36:43.844Z,23.00
2019-02-21T10:39:47.896Z,22.93
2019-02-21T10:42:50.691Z,23.47
2019-02-21T10:45:53.277Z,24.40
2019-02-21T10:48:55.889Z,24.60
2019-02-21T10:51:58.480Z,25.03
2019-02-21T10:55:01.071Z,24.90
2019-02-21T10:58:06.236Z,23.27
2019-02-21T11:01:08.885Z,23.63
2019-02-21T11:04:11.490Z,24.13
2019-02-21T11:07:15.101Z,25.23
2019-02-21T11:10:20.769Z,25.30
2019-02-21T11:13:23.334Z,24.20
2019-02-21T11:16:26.036Z,25.13
2019-02-21T11:19:29.985Z,26.10
2019-02-21T11:22:32.621Z,23.67
2019-02-21T11:25:35.281Z,25.73
2019-02-21T11:28:37.914Z,25.20
2019-02-21T11:31:40.645Z,24.70
2019-02-21T11:34:43.344Z,22.40
2019-02-21T11:37:47.375Z,23.27
2019-02-21T11:40:50.389Z,23.90
2019-02-21T11:43:52.994Z,25.37
2019-02-21T11:46:55.550Z,24.77
2019-02-21T11:49:58.239Z,23.97
2019-02-21T11:53:00.840Z,23.30
2019-02-21T11:56:03.529Z,23.90
2019-02-21T11:59:06.164Z,23.73
2019-02-21T12:02:08.820Z,23.70
2019-02-21T12:05:17.451Z,22.43
2019-02-21T12:08:16.071Z,22.43
2019-02-21T12:11:18.974Z,23.37
2019-02-21T12:14:21.694Z,21.63
2019-02-21T12:17:24.280Z,22.67
2019-02-21T12:20:26.899Z,22.23
2019-02-21T12:23:29.696Z,21.23
2019-02-21T12:26:32.479Z,21.67
2019-02-21T12:29:35.160Z,20.70
2019-02-21T12:32:37.761Z,20.60
2019-02-21T12:35:40.552Z,20.87
2019-02-21T12:38:46.491Z,21.63
2019-02-21T12:41:49.328Z,19.73
2019-02-21T12:44:53.653Z,20.70
2019-02-21T12:47:56.284Z,21.47
2019-02-21T12:50:58.964Z,21.20
2019-02-21T12:54:01.688Z,20.17
2019-02-21T12:57:04.329Z,20.07
2019-02-21T13:00:10.260Z,19.47
2019-02-21T13:03:12.873Z,20.10
2019-02-21T13:06:15.456Z,19.83
2019-02-21T13:09:18.123Z,22.00
2019-02-21T13:12:20.896Z,21.20
2019-02-21T13:15:23.479Z,21.27
2019-02-21T13:18:26.258Z,21.07
2019-02-21T13:21:29.890Z,21.23
2019-02-21T13:24:32.518Z,19.77
2019-02-21T13:27:35.095Z,19.83
2019-02-21T13:30:39.234Z,19.70
2019-02-21T13:33:41.975Z,20.20
2019-02-21T13:36:44.639Z,18.20
2019-02-21T13:39:47.354Z,19.00
2019-02-21T13:42:50.979Z,18.67
2019-02-21T13:45:53.635Z,19.90
2019-02-21T13:48:56.414Z,18.47
2019-02-21T13:51:58.964Z,18.43
2019-02-21T13:55:01.715Z,17.17
2019-02-21T13:58:04.435Z,17.10
2019-02-21T14:01:07.113Z,16.23
2019-02-21T14:04:09.813Z,16.57
2019-02-21T14:07:12.393Z,15.80
2019-02-21T14:10:15.071Z,17.27
2019-02-21T14:13:17.956Z,16.03
2019-02-21T14:16:20.565Z,15.37
2019-02-21T14:19:23.133Z,15.77
2019-02-21T14:22:27.449Z,15.70
2019-02-21T14:25:40.308Z,16.03
2019-02-21T14:28:37.290Z,16.43
2019-02-21T14:31:39.206Z,16.50
2019-02-21T14:34:41.905Z,16.10
2019-02-21T14:37:44.596Z,16.63
2019-02-21T14:40:47.159Z,18.43
2019-02-21T14:43:49.853Z,18.70
2019-02-21T14:46:52.564Z,18.80
2019-02-21T14:49:55.257Z,19.03
2019-02-21T14:52:57.914Z,20.20
2019-02-21T14:56:00.460Z,18.27
2019-02-21T14:59:03.090Z,21.00
2019-02-21T15:02:06.219Z,19.63
2019-02-21T15:05:10.131Z,20.40
2019-02-21T15:08:18.163Z,20.27
2019-02-21T15:11:20.948Z,20.93
2019-02-21T15:14:24.544Z,20.40
2019-02-21T15:17:27.118Z,20.87
2019-02-21T15:20:36.698Z,21.77
2019-02-21T15:23:36.894Z,21.27
2019-02-21T15:26:38.684Z,20.97
2019-02-21T15:29:42.234Z,22.73
2019-02-21T15:32:45.173Z,24.00
2019-02-21T15:35:48.080Z,23.17
2019-02-21T15:38:50.654Z,22.20
2019-02-21T15:41:53.268Z,23.20
2019-02-21T15:44:55.994Z,23.10
2019-02-21T15:47:58.746Z,22.50
2019-02-21T15:51:01.470Z,23.07
2019-02-21T15:54:04.223Z,23.80
2019-02-21T15:57:06.870Z,23.30
2019-02-21T16:00:11.386Z,23.40
2019-02-21T16:03:14.057Z,23.40
2019-02-21T16:06:16.760Z,25.20
2019-02-21T16:09:19.422Z,23.30
2019-02-21T16:12:22.464Z,23.50
2019-02-21T16:15:25.328Z,24.87
2019-02-21T16:18:28.044Z,26.20
2019-02-21T16:21:30.740Z,24.90
2019-02-21T16:24:33.415Z,23.90
2019-02-21T16:27:36.052Z,24.00
2019-02-21T16:30:38.738Z,24.50
2019-02-21T16:33:41.572Z,24.20
2019-02-21T16:36:44.164Z,23.40
2019-02-21T16:39:46.758Z,24.10
2019-02-21T16:42:49.348Z,23.37
2019-02-21T16:45:53.857Z,23.37
2019-02-21T16:48:56.493Z,22.90
2019-02-21T16:51:59.218Z,21.50
2019-02-21T16:55:03.015Z,21.20
2019-02-21T16:58:05.677Z,20.40
2019-02-21T17:01:08.515Z,20.40
2019-02-21T17:04:11.053Z,20.40
2019-02-21T17:07:19.819Z,19.77
2019-02-21T17:10:18.159Z,20.83
2019-02-21T17:13:20.826Z,19.07
2019-02-21T17:16:23.570Z,20.13
2019-02-21T17:19:26.179Z,20.47
2019-02-21T17:22:28.823Z,20.07
2019-02-21T17:25:31.537Z,20.33
2019-02-21T17:28:34.153Z,19.90
2019-02-21T17:31:37.356Z,19.87
2019-02-21T17:34:40.187Z,23.03
2019-02-21T17:37:42.875Z,19.97
2019-02-21T17:40:45.630Z,21.13
2019-02-21T17:43:48.320Z,21.60
2019-02-21T17:46:50.983Z,22.30
2019-02-21T17:49:53.565Z,21.23
2019-02-21T17:52:56.245Z,21.43
2019-02-21T17:55:58.920Z,21.73
2019-02-21T17:59:01.525Z,21.67
2019-02-21T18:02:04.255Z,22.43
2019-02-21T18:05:07.388Z,21.53
2019-02-21T18:08:10.045Z,23.50
2019-02-21T18:11:12.854Z,22.27
2019-02-21T18:14:15.446Z,22.37
2019-02-21T18:17:18.238Z,21.27
2019-02-21T18:20:20.888Z,23.17
2019-02-21T18:23:23.624Z,24.50
2019-02-21T18:26:26.233Z,23.00
2019-02-21T18:29:28.856Z,25.20
2019-02-21T18:32:33.325Z,23.67
2019-02-21T18:35:35.987Z,23.07
2019-02-21T18:38:38.682Z,24.07
2019-02-21T18:41:41.623Z,23.97
2019-02-21T18:44:44.604Z,24.83
2019-02-21T18:47:47.453Z,24.77
2019-02-21T18:50:50.353Z,24.50
2019-02-21T18:53:53.179Z,23.80
2019-02-21T18:56:57.143Z,26.30
2019-02-21T19:00:00.234Z,26.00
2019-02-21T19:03:04.305Z,26.33
2019-02-21T19:06:08.234Z,25.33
2019-02-21T19:09:11.036Z,27.57
2019-02-21T19:12:13.868Z,27.60
2019-02-21T19:15:17.475Z,29.23
2019-02-21T19:18:20.078Z,28.53
2019-02-21T19:21:22.766Z,29.53
2019-02-21T19:24:25.431Z,30.27
2019-02-21T19:27:36.865Z,31.40
2019-02-21T19:30:39.004Z,31.30
2019-02-21T19:33:42.123Z,32.83
2019-02-21T19:36:44.952Z,32.70
2019-02-21T19:39:47.598Z,32.53
2019-02-21T19:42:50.617Z,32.43
2019-02-21T19:45:53.361Z,34.37
2019-02-21T19:48:56.208Z,34.43
2019-02-21T19:51:58.849Z,36.73
2019-02-21T19:55:01.479Z,36.53
2019-02-21T19:58:06.007Z,35.20
2019-02-21T20:01:08.812Z,37.23
2019-02-21T20:04:11.407Z,40.00
2019-02-21T20:07:14.081Z,40.57
2019-02-21T20:10:16.988Z,37.53
2019-02-21T20:13:19.749Z,39.87
2019-02-21T20:16:22.713Z,39.17
2019-02-21T20:19:25.328Z,40.30
2019-02-21T20:22:28.185Z,40.90
2019-02-21T20:25:30.873Z,38.93
2019-02-21T20:28:33.463Z,42.17
2019-02-21T20:31:36.218Z,39.13
2019-02-21T20:34:38.873Z,40.60
2019-02-21T20:37:43.579Z,41.17
2019-02-21T20:40:46.362Z,41.10
2019-02-21T20:43:48.996Z,42.80
2019-02-21T20:46:51.658Z,42.00
2019-02-21T20:49:54.485Z,39.67
2019-02-21T20:52:57.218Z,37.57
2019-02-21T20:56:01.853Z,38.80
2019-02-21T20:59:04.838Z,37.60
2019-02-21T21:02:08.067Z,38.00
2019-02-21T21:05:11.036Z,39.67
2019-02-21T21:08:13.601Z,39.00
2019-02-21T21:11:16.301Z,37.13
2019-02-21T21:14:18.989Z,38.00
2019-02-21T21:17:24.014Z,34.90
2019-02-21T21:20:27.669Z,35.30
2019-02-21T21:23:32.813Z,32.30
2019-02-21T21:26:35.503Z,33.90
2019-02-21T21:29:38.153Z,33.80
2019-02-21T21:32:40.823Z,34.13
2019-02-21T21:35:43.418Z,33.07
2019-02-21T21:38:53.649Z,31.93
2019-02-21T21:41:50.991Z,30.83
2019-02-21T21:44:53.810Z,29.30
2019-02-21T21:47:57.403Z,30.37
2019-02-21T21:51:00.290Z,28.97
2019-02-21T21:54:03.846Z,29.83
2019-02-21T21:57:06.511Z,30.47
2019-02-21T22:00:13.106Z,27.70
2019-02-21T22:03:17.377Z,28.33
2019-02-21T22:06:20.011Z,28.80
2019-02-21T22:09:22.863Z,29.47
2019-02-21T22:12:25.617Z,28.00
2019-02-21T22:15:28.336Z,31.00
2019-02-21T22:18:31.148Z,30.80
2019-02-21T22:21:35.952Z,31.20
2019-02-21T22:24:38.761Z,30.17
2019-02-21T22:27:41.547Z,30.20
2019-02-21T22:30:44.157Z,30.57
2019-02-21T22:33:46.916Z,30.60
2019-02-21T22:36:49.618Z,31.93
2019-02-21T22:39:52.306Z,29.87
2019-02-21T22:42:55.034Z,29.03
2019-02-21T22:45:57.642Z,29.00
2019-02-21T22:49:00.455Z,29.77
2019-02-21T22:52:03.013Z,29.40
2019-02-21T22:55:09.725Z,30.40
2019-02-21T22:58:10.411Z,30.97
2019-02-21T23:01:28.594Z,30.57
2019-02-21T23:05:20.960Z,31.20
2019-02-21T23:08:52.430Z,29.67
2019-02-21T23:11:55.192Z,31.10
2019-02-21T23:14:57.821Z,31.20
2019-02-21T23:18:00.397Z,29.77
2019-02-21T23:21:04.178Z,31.33
2019-02-21T23:24:06.715Z,30.40
2019-02-21T23:27:09.520Z,30.73
2019-02-21T23:30:12.847Z,29.50
2019-02-21T23:33:15.622Z,30.17
2019-02-21T23:36:18.206Z,31.13
2019-02-21T23:39:20.827Z,30.87
2019-02-21T23:42:23.394Z,31.70
2019-02-21T23:45:25.992Z,32.33
2019-02-21T23:48:28.632Z,30.33
2019-02-21T23:51:31.422Z,28.87
2019-02-21T23:54:33.956Z,29.23
2019-02-21T23:57:36.673Z,27.40
